sensor_id;sensor_type;location;lat;lon;timestamp;temperature;humidity
8595;DHT22;4335;48.860;9.198;2023-02-28T00:01:19;-1.40;99.90
8595;DHT22;4335;48.860;9.198;2023-02-28T00:03:49;-1.40;99.90
8595;DHT22;4335;48.860;9.198;2023-02-28T00:06:16;-1.40;99.90
8595;DHT22;4335;48.860;9.198;2023-02-28T00:08:50;-1.40;99.90
8595;DHT22;4335;48.860;9.198;2023-02-28T00:11:17;-1.40;99.90
8595;DHT22;4335;48.860;9.198;2023-02-28T00:13:47;-1.40;99.90
8595;DHT22;4335;48.860;9.198;2023-02-28T00:16:15;-1.40;99.90
8595;DHT22;4335;48.860;9.198;2023-02-28T00:18:42;-1.50;99.90
8595;DHT22;4335;48.860;9.198;2023-02-28T00:21:10;-1.40;99.90
8595;DHT22;4335;48.860;9.198;2023-02-28T00:23:37;-1.40;99.90
8595;DHT22;4335;48.860;9.198;2023-02-28T00:26:07;-1.50;99.90
8595;DHT22;4335;48.860;9.198;2023-02-28T00:28:36;-1.50;99.90
8595;DHT22;4335;48.860;9.198;2023-02-28T00:31:03;-1.40;99.90
8595;DHT22;4335;48.860;9.198;2023-02-28T00:33:30;-1.40;99.90
8595;DHT22;4335;48.860;9.198;2023-02-28T00:36:08;-1.40;99.90
8595;DHT22;4335;48.860;9.198;2023-02-28T00:38:36;-1.50;99.90
8595;DHT22;4335;48.860;9.198;2023-02-28T00:41:03;-1.60;99.90
8595;DHT22;4335;48.860;9.198;2023-02-28T00:43:39;-1.50;99.90
8595;DHT22;4335;48.860;9.198;2023-02-28T00:46:06;-1.50;99.90
8595;DHT22;4335;48.860;9.198;2023-02-28T00:48:33;-1.50;99.90
8595;DHT22;4335;48.860;9.198;2023-02-28T00:51:00;-1.60;99.90
8595;DHT22;4335;48.860;9.198;2023-02-28T00:53:27;-1.60;99.90
8595;DHT22;4335;48.860;9.198;2023-02-28T00:56:02;-1.60;99.90
8595;DHT22;4335;48.860;9.198;2023-02-28T00:58:29;-1.60;99.90
8595;DHT22;4335;48.860;9.198;2023-02-28T01:00:56;-1.50;99.90
8595;DHT22;4335;48.860;9.198;2023-02-28T01:03:23;-1.50;99.90
8595;DHT22;4335;48.860;9.198;2023-02-28T01:05:49;-1.50;99.90
8595;DHT22;4335;48.860;9.198;2023-02-28T01:08:16;-1.50;99.90
8595;DHT22;4335;48.860;9.198;2023-02-28T01:10:46;-1.60;99.90
8595;DHT22;4335;48.860;9.198;2023-02-28T01:13:14;-1.60;99.90
8595;DHT22;4335;48.860;9.198;2023-02-28T01:15:45;-1.60;99.90
8595;DHT22;4335;48.860;9.198;2023-02-28T01:18:14;-1.60;99.90
8595;DHT22;4335;48.860;9.198;2023-02-28T01:20:44;-1.60;99.90
8595;DHT22;4335;48.860;9.198;2023-02-28T01:23:12;-1.60;99.90
8595;DHT22;4335;48.860;9.198;2023-02-28T01:25:38;-1.60;99.90
8595;DHT22;4335;48.860;9.198;2023-02-28T01:28:06;-1.60;99.90
8595;DHT22;4335;48.860;9.198;2023-02-28T01:30:33;-1.70;99.90
8595;DHT22;4335;48.860;9.198;2023-02-28T01:33:00;-1.70;99.90
8595;DHT22;4335;48.860;9.198;2023-02-28T01:35:27;-1.70;99.90
8595;DHT22;4335;48.860;9.198;2023-02-28T01:37:53;-1.70;99.90
8595;DHT22;4335;48.860;9.198;2023-02-28T01:40:20;-1.70;99.90
8595;DHT22;4335;48.860;9.198;2023-02-28T01:42:47;-1.70;99.90
8595;DHT22;4335;48.860;9.198;2023-02-28T01:45:22;-1.70;99.90
8595;DHT22;4335;48.860;9.198;2023-02-28T01:47:55;-1.70;99.90
8595;DHT22;4335;48.860;9.198;2023-02-28T01:50:25;-1.70;99.90
8595;DHT22;4335;48.860;9.198;2023-02-28T01:52:55;-1.70;99.90
8595;DHT22;4335;48.860;9.198;2023-02-28T01:55:24;-1.70;99.90
8595;DHT22;4335;48.860;9.198;2023-02-28T01:57:57;-1.80;99.90
8595;DHT22;4335;48.860;9.198;2023-02-28T02:00:26;-1.60;99.90
8595;DHT22;4335;48.860;9.198;2023-02-28T02:02:56;-1.80;99.90
8595;DHT22;4335;48.860;9.198;2023-02-28T02:05:25;-1.80;99.90
8595;DHT22;4335;48.860;9.198;2023-02-28T02:07:58;-1.80;99.90
8595;DHT22;4335;48.860;9.198;2023-02-28T02:10:31;-1.80;99.90
8595;DHT22;4335;48.860;9.198;2023-02-28T02:13:22;-1.70;99.90
8595;DHT22;4335;48.860;9.198;2023-02-28T02:16:04;-1.80;99.90
8595;DHT22;4335;48.860;9.198;2023-02-28T02:18:38;-1.70;99.90
8595;DHT22;4335;48.860;9.198;2023-02-28T02:21:49;-1.80;99.90
8595;DHT22;4335;48.860;9.198;2023-02-28T02:27:59;-1.70;99.90
8595;DHT22;4335;48.860;9.198;2023-02-28T02:36:48;-1.80;99.90
8595;DHT22;4335;48.860;9.198;2023-02-28T02:39:22;-1.80;99.90
8595;DHT22;4335;48.860;9.198;2023-02-28T02:41:52;-1.80;99.90
8595;DHT22;4335;48.860;9.198;2023-02-28T02:44:22;-1.80;99.90
8595;DHT22;4335;48.860;9.198;2023-02-28T02:46:52;-1.70;99.90
8595;DHT22;4335;48.860;9.198;2023-02-28T02:49:26;-1.70;99.90
8595;DHT22;4335;48.860;9.198;2023-02-28T02:52:01;-1.70;99.90
8595;DHT22;4335;48.860;9.198;2023-02-28T02:54:33;-1.80;99.90
8595;DHT22;4335;48.860;9.198;2023-02-28T02:57:05;-1.70;99.90
8595;DHT22;4335;48.860;9.198;2023-02-28T02:59:38;-1.70;99.90
8595;DHT22;4335;48.860;9.198;2023-02-28T03:02:08;-1.70;99.90
8595;DHT22;4335;48.860;9.198;2023-02-28T03:04:42;-1.60;99.90
8595;DHT22;4335;48.860;9.198;2023-02-28T03:07:10;-1.60;99.90
8595;DHT22;4335;48.860;9.198;2023-02-28T03:09:37;-1.60;99.90
8595;DHT22;4335;48.860;9.198;2023-02-28T03:12:08;-1.50;99.90
8595;DHT22;4335;48.860;9.198;2023-02-28T03:14:43;-1.60;99.90
8595;DHT22;4335;48.860;9.198;2023-02-28T03:20:13;-1.60;99.90
8595;DHT22;4335;48.860;9.198;2023-02-28T03:22:49;-1.60;99.90
8595;DHT22;4335;48.860;9.198;2023-02-28T03:25:22;-1.50;99.90
8595;DHT22;4335;48.860;9.198;2023-02-28T03:28:00;-1.50;99.90
8595;DHT22;4335;48.860;9.198;2023-02-28T03:30:33;-1.60;99.90
8595;DHT22;4335;48.860;9.198;2023-02-28T03:33:08;-1.50;99.90
8595;DHT22;4335;48.860;9.198;2023-02-28T03:35:40;-1.60;99.90
8595;DHT22;4335;48.860;9.198;2023-02-28T03:38:13;-1.50;99.90
8595;DHT22;4335;48.860;9.198;2023-02-28T03:40:45;-1.50;99.90
8595;DHT22;4335;48.860;9.198;2023-02-28T03:43:22;-1.60;99.90
8595;DHT22;4335;48.860;9.198;2023-02-28T03:45:51;-1.60;99.90
8595;DHT22;4335;48.860;9.198;2023-02-28T03:48:20;-1.50;99.90
8595;DHT22;4335;48.860;9.198;2023-02-28T03:50:51;-1.50;99.90
8595;DHT22;4335;48.860;9.198;2023-02-28T03:53:25;-1.50;99.90
8595;DHT22;4335;48.860;9.198;2023-02-28T03:55:59;-1.50;99.90
8595;DHT22;4335;48.860;9.198;2023-02-28T03:58:32;-1.50;99.90
8595;DHT22;4335;48.860;9.198;2023-02-28T04:01:03;-1.50;99.90
8595;DHT22;4335;48.860;9.198;2023-02-28T04:03:35;-1.50;99.90
8595;DHT22;4335;48.860;9.198;2023-02-28T04:06:02;-1.50;99.90
8595;DHT22;4335;48.860;9.198;2023-02-28T04:08:29;-1.50;99.90
8595;DHT22;4335;48.860;9.198;2023-02-28T04:11:01;-1.40;99.90
8595;DHT22;4335;48.860;9.198;2023-02-28T04:13:29;-1.50;99.90
8595;DHT22;4335;48.860;9.198;2023-02-28T04:15:55;-1.50;99.90
8595;DHT22;4335;48.860;9.198;2023-02-28T04:18:25;-1.40;99.90
8595;DHT22;4335;48.860;9.198;2023-02-28T04:20:52;-1.40;99.90
8595;DHT22;4335;48.860;9.198;2023-02-28T04:23:18;-1.40;99.90
8595;DHT22;4335;48.860;9.198;2023-02-28T04:25:48;-1.40;99.90
8595;DHT22;4335;48.860;9.198;2023-02-28T04:28:19;-1.40;99.90
8595;DHT22;4335;48.860;9.198;2023-02-28T04:30:46;-1.40;99.90
8595;DHT22;4335;48.860;9.198;2023-02-28T04:33:13;-1.50;99.90
8595;DHT22;4335;48.860;9.198;2023-02-28T04:35:39;-1.40;99.90
8595;DHT22;4335;48.860;9.198;2023-02-28T04:38:06;-1.40;99.90
8595;DHT22;4335;48.860;9.198;2023-02-28T04:40:33;-1.40;99.90
8595;DHT22;4335;48.860;9.198;2023-02-28T04:43:02;-1.40;99.90
8595;DHT22;4335;48.860;9.198;2023-02-28T04:45:29;-1.40;99.90
8595;DHT22;4335;48.860;9.198;2023-02-28T04:47:58;-1.40;99.90
8595;DHT22;4335;48.860;9.198;2023-02-28T04:50:24;-1.40;99.90
8595;DHT22;4335;48.860;9.198;2023-02-28T04:52:51;-1.40;99.90
8595;DHT22;4335;48.860;9.198;2023-02-28T04:55:18;-1.40;99.90
8595;DHT22;4335;48.860;9.198;2023-02-28T04:57:47;-1.30;99.90
8595;DHT22;4335;48.860;9.198;2023-02-28T05:00:16;-1.30;99.90
8595;DHT22;4335;48.860;9.198;2023-02-28T05:02:43;-1.20;99.90
8595;DHT22;4335;48.860;9.198;2023-02-28T05:05:12;-1.30;99.90
8595;DHT22;4335;48.860;9.198;2023-02-28T05:07:43;-1.30;99.90
8595;DHT22;4335;48.860;9.198;2023-02-28T05:10:13;-1.30;99.90
8595;DHT22;4335;48.860;9.198;2023-02-28T05:12:40;-1.30;99.90
8595;DHT22;4335;48.860;9.198;2023-02-28T05:15:13;-1.30;99.90
8595;DHT22;4335;48.860;9.198;2023-02-28T05:17:40;-1.30;99.90
8595;DHT22;4335;48.860;9.198;2023-02-28T05:20:09;-1.30;99.90
8595;DHT22;4335;48.860;9.198;2023-02-28T05:22:42;-1.30;99.90
8595;DHT22;4335;48.860;9.198;2023-02-28T05:25:11;-1.30;99.90
8595;DHT22;4335;48.860;9.198;2023-02-28T05:27:38;-1.30;99.90
8595;DHT22;4335;48.860;9.198;2023-02-28T05:30:09;-1.30;99.90
8595;DHT22;4335;48.860;9.198;2023-02-28T05:32:36;-1.20;99.90
8595;DHT22;4335;48.860;9.198;2023-02-28T05:35:07;-1.30;99.90
8595;DHT22;4335;48.860;9.198;2023-02-28T05:37:34;-1.30;99.90
8595;DHT22;4335;48.860;9.198;2023-02-28T05:40:05;-1.30;99.90
8595;DHT22;4335;48.860;9.198;2023-02-28T05:42:32;-1.30;99.90
8595;DHT22;4335;48.860;9.198;2023-02-28T05:45:06;-1.30;99.90
8595;DHT22;4335;48.860;9.198;2023-02-28T05:47:36;-1.30;99.90
8595;DHT22;4335;48.860;9.198;2023-02-28T05:50:04;-1.20;99.90
8595;DHT22;4335;48.860;9.198;2023-02-28T05:52:31;-1.30;99.90
8595;DHT22;4335;48.860;9.198;2023-02-28T05:54:58;-1.20;99.90
8595;DHT22;4335;48.860;9.198;2023-02-28T05:57:27;-1.20;99.90
8595;DHT22;4335;48.860;9.198;2023-02-28T05:59:53;-1.20;99.90
8595;DHT22;4335;48.860;9.198;2023-02-28T06:02:23;-1.20;99.90
8595;DHT22;4335;48.860;9.198;2023-02-28T06:04:49;-1.30;99.90
8595;DHT22;4335;48.860;9.198;2023-02-28T06:07:19;-1.30;99.90
8595;DHT22;4335;48.860;9.198;2023-02-28T06:09:51;-1.20;99.90
8595;DHT22;4335;48.860;9.198;2023-02-28T06:12:20;-1.20;99.90
8595;DHT22;4335;48.860;9.198;2023-02-28T06:14:46;-1.20;99.90
8595;DHT22;4335;48.860;9.198;2023-02-28T06:17:19;-1.20;99.90
8595;DHT22;4335;48.860;9.198;2023-02-28T06:19:45;-1.20;99.90
8595;DHT22;4335;48.860;9.198;2023-02-28T06:22:13;-1.10;99.90
8595;DHT22;4335;48.860;9.198;2023-02-28T06:24:41;-1.10;99.90
8595;DHT22;4335;48.860;9.198;2023-02-28T06:27:07;-1.10;99.90
8595;DHT22;4335;48.860;9.198;2023-02-28T06:29:35;-1.10;99.90
8595;DHT22;4335;48.860;9.198;2023-02-28T06:32:03;-1.10;99.90
8595;DHT22;4335;48.860;9.198;2023-02-28T06:34:33;-1.10;99.90
8595;DHT22;4335;48.860;9.198;2023-02-28T06:37:00;-1.10;99.90
8595;DHT22;4335;48.860;9.198;2023-02-28T06:39:33;-1.20;99.90
8595;DHT22;4335;48.860;9.198;2023-02-28T06:42:01;-1.20;99.90
8595;DHT22;4335;48.860;9.198;2023-02-28T06:44:31;-1.20;99.90
8595;DHT22;4335;48.860;9.198;2023-02-28T06:47:01;-1.10;99.90
8595;DHT22;4335;48.860;9.198;2023-02-28T06:49:32;-1.10;99.90
8595;DHT22;4335;48.860;9.198;2023-02-28T06:52:00;-1.10;99.90
8595;DHT22;4335;48.860;9.198;2023-02-28T06:54:29;-1.10;99.90
8595;DHT22;4335;48.860;9.198;2023-02-28T06:56:57;-1.10;99.90
8595;DHT22;4335;48.860;9.198;2023-02-28T06:59:25;-1.00;99.90
8595;DHT22;4335;48.860;9.198;2023-02-28T07:01:51;-1.00;99.90
8595;DHT22;4335;48.860;9.198;2023-02-28T07:04:18;-1.00;99.90
8595;DHT22;4335;48.860;9.198;2023-02-28T07:06:48;-0.90;99.90
8595;DHT22;4335;48.860;9.198;2023-02-28T07:09:20;-1.00;99.90
8595;DHT22;4335;48.860;9.198;2023-02-28T07:11:50;-1.00;99.90
8595;DHT22;4335;48.860;9.198;2023-02-28T07:14:16;-1.00;99.90
8595;DHT22;4335;48.860;9.198;2023-02-28T07:16:44;-0.90;99.90
8595;DHT22;4335;48.860;9.198;2023-02-28T07:19:14;-0.90;99.90
8595;DHT22;4335;48.860;9.198;2023-02-28T07:21:43;-0.90;99.90
8595;DHT22;4335;48.860;9.198;2023-02-28T07:24:13;-0.90;99.90
8595;DHT22;4335;48.860;9.198;2023-02-28T07:26:41;-0.90;99.90
8595;DHT22;4335;48.860;9.198;2023-02-28T07:29:08;-0.90;99.90
8595;DHT22;4335;48.860;9.198;2023-02-28T07:31:34;-0.90;99.90
8595;DHT22;4335;48.860;9.198;2023-02-28T07:34:05;-0.90;99.90
8595;DHT22;4335;48.860;9.198;2023-02-28T07:36:32;-0.90;99.90
8595;DHT22;4335;48.860;9.198;2023-02-28T07:38:59;-0.80;99.90
8595;DHT22;4335;48.860;9.198;2023-02-28T07:41:25;-0.80;99.90
8595;DHT22;4335;48.860;9.198;2023-02-28T07:43:55;-0.80;99.90
8595;DHT22;4335;48.860;9.198;2023-02-28T07:46:26;-0.80;99.90
8595;DHT22;4335;48.860;9.198;2023-02-28T07:48:53;-0.80;99.90
8595;DHT22;4335;48.860;9.198;2023-02-28T07:51:22;-0.90;99.90
8595;DHT22;4335;48.860;9.198;2023-02-28T07:53:49;-0.80;99.90
8595;DHT22;4335;48.860;9.198;2023-02-28T07:56:16;-0.90;99.90
8595;DHT22;4335;48.860;9.198;2023-02-28T07:58:45;-0.80;99.90
8595;DHT22;4335;48.860;9.198;2023-02-28T08:01:13;-0.80;99.90
8595;DHT22;4335;48.860;9.198;2023-02-28T08:03:40;-0.80;99.90
8595;DHT22;4335;48.860;9.198;2023-02-28T08:06:09;-0.90;99.90
8595;DHT22;4335;48.860;9.198;2023-02-28T08:08:41;-0.90;99.90
8595;DHT22;4335;48.860;9.198;2023-02-28T08:11:08;-0.90;99.90
8595;DHT22;4335;48.860;9.198;2023-02-28T08:13:35;-0.80;99.90
8595;DHT22;4335;48.860;9.198;2023-02-28T08:16:02;-0.80;99.90
8595;DHT22;4335;48.860;9.198;2023-02-28T08:18:29;-0.70;99.90
8595;DHT22;4335;48.860;9.198;2023-02-28T08:20:55;-0.60;99.90
8595;DHT22;4335;48.860;9.198;2023-02-28T08:23:23;-0.60;99.90
8595;DHT22;4335;48.860;9.198;2023-02-28T08:25:54;-0.60;99.90
8595;DHT22;4335;48.860;9.198;2023-02-28T08:28:21;-0.50;99.90
8595;DHT22;4335;48.860;9.198;2023-02-28T08:30:50;-0.60;99.90
8595;DHT22;4335;48.860;9.198;2023-02-28T08:33:17;-0.70;99.90
8595;DHT22;4335;48.860;9.198;2023-02-28T08:35:44;-0.60;99.90
8595;DHT22;4335;48.860;9.198;2023-02-28T08:38:10;-0.60;99.90
8595;DHT22;4335;48.860;9.198;2023-02-28T08:40:37;-0.60;99.90
8595;DHT22;4335;48.860;9.198;2023-02-28T08:43:04;-0.60;99.90
8595;DHT22;4335;48.860;9.198;2023-02-28T08:45:34;-0.50;99.90
8595;DHT22;4335;48.860;9.198;2023-02-28T08:48:07;-0.50;99.90
8595;DHT22;4335;48.860;9.198;2023-02-28T08:50:33;-0.40;99.90
8595;DHT22;4335;48.860;9.198;2023-02-28T08:53:00;-0.30;99.90
8595;DHT22;4335;48.860;9.198;2023-02-28T08:55:32;-0.30;99.90
8595;DHT22;4335;48.860;9.198;2023-02-28T08:58:04;-0.30;99.90
8595;DHT22;4335;48.860;9.198;2023-02-28T09:00:30;-0.20;99.90
8595;DHT22;4335;48.860;9.198;2023-02-28T09:02:57;-0.20;99.90
8595;DHT22;4335;48.860;9.198;2023-02-28T09:05:24;-0.20;99.90
8595;DHT22;4335;48.860;9.198;2023-02-28T09:07:53;-0.10;99.90
8595;DHT22;4335;48.860;9.198;2023-02-28T09:10:20;-0.10;99.90
8595;DHT22;4335;48.860;9.198;2023-02-28T09:12:47;0.00;99.90
8595;DHT22;4335;48.860;9.198;2023-02-28T09:15:20;-0.10;99.90
8595;DHT22;4335;48.860;9.198;2023-02-28T09:17:47;0.00;99.90
8595;DHT22;4335;48.860;9.198;2023-02-28T09:20:14;0.10;99.90
8595;DHT22;4335;48.860;9.198;2023-02-28T09:22:43;0.20;99.90
8595;DHT22;4335;48.860;9.198;2023-02-28T09:25:10;0.30;99.90
8595;DHT22;4335;48.860;9.198;2023-02-28T09:27:36;0.40;99.90
8595;DHT22;4335;48.860;9.198;2023-02-28T09:30:04;0.40;99.90
8595;DHT22;4335;48.860;9.198;2023-02-28T09:32:31;0.40;99.90
8595;DHT22;4335;48.860;9.198;2023-02-28T09:34:58;0.50;99.90
8595;DHT22;4335;48.860;9.198;2023-02-28T09:37:25;0.50;99.90
8595;DHT22;4335;48.860;9.198;2023-02-28T09:39:55;0.70;99.90
8595;DHT22;4335;48.860;9.198;2023-02-28T09:42:23;0.80;99.90
8595;DHT22;4335;48.860;9.198;2023-02-28T09:44:52;0.90;99.90
8595;DHT22;4335;48.860;9.198;2023-02-28T09:47:27;1.00;99.90
8595;DHT22;4335;48.860;9.198;2023-02-28T09:50:03;1.00;99.90
8595;DHT22;4335;48.860;9.198;2023-02-28T09:52:33;1.10;99.90
8595;DHT22;4335;48.860;9.198;2023-02-28T09:55:04;1.10;99.90
8595;DHT22;4335;48.860;9.198;2023-02-28T09:57:42;1.10;99.90
8595;DHT22;4335;48.860;9.198;2023-02-28T10:00:14;1.20;99.90
8595;DHT22;4335;48.860;9.198;2023-02-28T10:03:00;1.30;99.90
8595;DHT22;4335;48.860;9.198;2023-02-28T10:05:34;1.50;99.90
8595;DHT22;4335;48.860;9.198;2023-02-28T10:08:14;1.70;99.90
8595;DHT22;4335;48.860;9.198;2023-02-28T10:10:46;1.70;99.90
8595;DHT22;4335;48.860;9.198;2023-02-28T10:13:19;1.70;99.90
8595;DHT22;4335;48.860;9.198;2023-02-28T10:15:52;1.80;99.90
8595;DHT22;4335;48.860;9.198;2023-02-28T10:18:23;1.80;99.90
8595;DHT22;4335;48.860;9.198;2023-02-28T10:20:53;1.90;99.90
8595;DHT22;4335;48.860;9.198;2023-02-28T10:23:25;2.00;99.90
8595;DHT22;4335;48.860;9.198;2023-02-28T10:25:56;2.10;99.90
8595;DHT22;4335;48.860;9.198;2023-02-28T10:28:25;2.00;99.90
8595;DHT22;4335;48.860;9.198;2023-02-28T10:30:53;2.00;99.90
8595;DHT22;4335;48.860;9.198;2023-02-28T10:33:23;2.20;99.90
8595;DHT22;4335;48.860;9.198;2023-02-28T10:35:52;2.20;99.90
8595;DHT22;4335;48.860;9.198;2023-02-28T10:38:24;2.30;99.90
8595;DHT22;4335;48.860;9.198;2023-02-28T10:40:52;2.50;99.90
8595;DHT22;4335;48.860;9.198;2023-02-28T10:43:29;2.70;99.90
8595;DHT22;4335;48.860;9.198;2023-02-28T10:46:03;2.90;99.90
8595;DHT22;4335;48.860;9.198;2023-02-28T10:48:34;2.90;99.90
8595;DHT22;4335;48.860;9.198;2023-02-28T10:51:07;2.80;99.90
8595;DHT22;4335;48.860;9.198;2023-02-28T10:53:38;3.00;99.90
8595;DHT22;4335;48.860;9.198;2023-02-28T10:56:16;3.10;99.90
8595;DHT22;4335;48.860;9.198;2023-02-28T10:58:51;3.10;99.90
8595;DHT22;4335;48.860;9.198;2023-02-28T11:01:20;3.70;99.90
8595;DHT22;4335;48.860;9.198;2023-02-28T11:03:48;4.70;99.90
8595;DHT22;4335;48.860;9.198;2023-02-28T11:06:21;5.50;99.90
8595;DHT22;4335;48.860;9.198;2023-02-28T11:08:51;6.30;99.90
8595;DHT22;4335;48.860;9.198;2023-02-28T11:11:23;7.10;99.90
8595;DHT22;4335;48.860;9.198;2023-02-28T11:13:55;7.10;99.90
8595;DHT22;4335;48.860;9.198;2023-02-28T11:16:32;7.00;99.90
8595;DHT22;4335;48.860;9.198;2023-02-28T11:18:59;6.70;99.80
8595;DHT22;4335;48.860;9.198;2023-02-28T11:21:29;6.70;99.90
8595;DHT22;4335;48.860;9.198;2023-02-28T11:24:02;6.90;99.90
8595;DHT22;4335;48.860;9.198;2023-02-28T11:26:39;7.20;99.90
8595;DHT22;4335;48.860;9.198;2023-02-28T11:29:27;7.30;98.60
8595;DHT22;4335;48.860;9.198;2023-02-28T11:32:13;6.80;98.70
8595;DHT22;4335;48.860;9.198;2023-02-28T11:34:41;6.10;99.90
8595;DHT22;4335;48.860;9.198;2023-02-28T11:37:14;5.40;99.90
8595;DHT22;4335;48.860;9.198;2023-02-28T11:39:42;4.90;99.90
8595;DHT22;4335;48.860;9.198;2023-02-28T11:42:43;4.80;99.90
8595;DHT22;4335;48.860;9.198;2023-02-28T11:45:22;4.70;99.90
8595;DHT22;4335;48.860;9.198;2023-02-28T11:47:57;4.60;99.90
8595;DHT22;4335;48.860;9.198;2023-02-28T11:50:42;4.50;99.90
8595;DHT22;4335;48.860;9.198;2023-02-28T11:53:22;4.50;99.90
8595;DHT22;4335;48.860;9.198;2023-02-28T11:56:02;4.50;99.90
8595;DHT22;4335;48.860;9.198;2023-02-28T11:58:37;4.30;99.90
8595;DHT22;4335;48.860;9.198;2023-02-28T12:01:36;4.20;99.90
8595;DHT22;4335;48.860;9.198;2023-02-28T12:04:16;4.10;99.90
8595;DHT22;4335;48.860;9.198;2023-02-28T12:06:50;4.00;99.90
8595;DHT22;4335;48.860;9.198;2023-02-28T12:09:39;3.90;99.90
8595;DHT22;4335;48.860;9.198;2023-02-28T12:12:20;3.90;99.90
8595;DHT22;4335;48.860;9.198;2023-02-28T12:15:22;3.90;99.90
8595;DHT22;4335;48.860;9.198;2023-02-28T12:18:04;4.00;99.90
8595;DHT22;4335;48.860;9.198;2023-02-28T12:20:42;4.10;99.90
8595;DHT22;4335;48.860;9.198;2023-02-28T12:23:36;4.10;99.90
8595;DHT22;4335;48.860;9.198;2023-02-28T12:26:13;4.10;99.90
8595;DHT22;4335;48.860;9.198;2023-02-28T12:28:52;4.10;99.90
8595;DHT22;4335;48.860;9.198;2023-02-28T12:31:21;4.20;99.90
8595;DHT22;4335;48.860;9.198;2023-02-28T12:33:55;4.10;99.90
8595;DHT22;4335;48.860;9.198;2023-02-28T12:36:23;4.10;99.90
8595;DHT22;4335;48.860;9.198;2023-02-28T12:39:01;4.20;99.90
8595;DHT22;4335;48.860;9.198;2023-02-28T12:41:36;4.20;99.90
8595;DHT22;4335;48.860;9.198;2023-02-28T12:44:11;4.30;99.90
8595;DHT22;4335;48.860;9.198;2023-02-28T12:46:41;4.10;99.90
8595;DHT22;4335;48.860;9.198;2023-02-28T12:49:12;4.10;99.90
8595;DHT22;4335;48.860;9.198;2023-02-28T12:51:41;4.10;99.90
8595;DHT22;4335;48.860;9.198;2023-02-28T12:54:14;4.10;99.90
8595;DHT22;4335;48.860;9.198;2023-02-28T12:56:49;4.00;99.90
8595;DHT22;4335;48.860;9.198;2023-02-28T12:59:25;4.00;99.90
8595;DHT22;4335;48.860;9.198;2023-02-28T13:05:45;4.10;99.90
8595;DHT22;4335;48.860;9.198;2023-02-28T13:08:28;4.00;99.90
8595;DHT22;4335;48.860;9.198;2023-02-28T13:11:03;4.00;99.90
8595;DHT22;4335;48.860;9.198;2023-02-28T13:13:34;4.00;99.90
8595;DHT22;4335;48.860;9.198;2023-02-28T13:16:06;4.10;99.90
8595;DHT22;4335;48.860;9.198;2023-02-28T13:18:42;4.00;99.90
8595;DHT22;4335;48.860;9.198;2023-02-28T13:21:32;4.10;99.90
8595;DHT22;4335;48.860;9.198;2023-02-28T13:27:36;4.20;99.90
8595;DHT22;4335;48.860;9.198;2023-02-28T13:33:26;4.30;99.90
8595;DHT22;4335;48.860;9.198;2023-02-28T13:36:22;4.30;99.90
8595;DHT22;4335;48.860;9.198;2023-02-28T13:38:50;4.40;99.90
8595;DHT22;4335;48.860;9.198;2023-02-28T13:41:41;4.50;99.90
8595;DHT22;4335;48.860;9.198;2023-02-28T13:44:09;4.60;99.90
8595;DHT22;4335;48.860;9.198;2023-02-28T13:50:15;4.50;99.90
8595;DHT22;4335;48.860;9.198;2023-02-28T13:52:55;4.60;99.90
8595;DHT22;4335;48.860;9.198;2023-02-28T13:55:28;4.50;99.90
8595;DHT22;4335;48.860;9.198;2023-02-28T13:58:16;4.50;99.90
8595;DHT22;4335;48.860;9.198;2023-02-28T14:01:05;4.50;99.90
8595;DHT22;4335;48.860;9.198;2023-02-28T14:04:03;4.60;99.90
8595;DHT22;4335;48.860;9.198;2023-02-28T14:06:47;4.60;99.90
8595;DHT22;4335;48.860;9.198;2023-02-28T14:09:25;4.60;99.90
8595;DHT22;4335;48.860;9.198;2023-02-28T14:11:54;4.60;99.90
8595;DHT22;4335;48.860;9.198;2023-02-28T14:14:54;4.50;99.90
8595;DHT22;4335;48.860;9.198;2023-02-28T14:17:22;4.60;99.90
8595;DHT22;4335;48.860;9.198;2023-02-28T14:19:49;4.70;99.90
8595;DHT22;4335;48.860;9.198;2023-02-28T14:22:43;4.70;99.90
8595;DHT22;4335;48.860;9.198;2023-02-28T14:25:23;4.70;99.90
8595;DHT22;4335;48.860;9.198;2023-02-28T14:28:11;4.70;99.90
8595;DHT22;4335;48.860;9.198;2023-02-28T14:30:56;4.70;99.90
8595;DHT22;4335;48.860;9.198;2023-02-28T14:33:27;4.80;99.90
8595;DHT22;4335;48.860;9.198;2023-02-28T14:36:07;4.80;99.90
8595;DHT22;4335;48.860;9.198;2023-02-28T14:38:40;4.90;99.90
8595;DHT22;4335;48.860;9.198;2023-02-28T14:41:20;4.90;99.90
8595;DHT22;4335;48.860;9.198;2023-02-28T14:43:55;4.90;99.90
8595;DHT22;4335;48.860;9.198;2023-02-28T14:46:25;4.80;99.90
8595;DHT22;4335;48.860;9.198;2023-02-28T14:48:53;4.80;99.90
8595;DHT22;4335;48.860;9.198;2023-02-28T14:51:24;4.90;99.90
8595;DHT22;4335;48.860;9.198;2023-02-28T14:53:56;4.90;99.90
8595;DHT22;4335;48.860;9.198;2023-02-28T14:56:26;4.80;99.90
8595;DHT22;4335;48.860;9.198;2023-02-28T14:58:56;4.70;99.90
8595;DHT22;4335;48.860;9.198;2023-02-28T15:01:25;4.80;99.90
8595;DHT22;4335;48.860;9.198;2023-02-28T15:04:02;4.80;99.90
8595;DHT22;4335;48.860;9.198;2023-02-28T15:06:30;4.80;99.90
8595;DHT22;4335;48.860;9.198;2023-02-28T15:09:14;4.80;99.90
8595;DHT22;4335;48.860;9.198;2023-02-28T15:11:41;4.80;99.90
8595;DHT22;4335;48.860;9.198;2023-02-28T15:14:17;4.90;99.90
8595;DHT22;4335;48.860;9.198;2023-02-28T15:16:46;5.00;99.90
8595;DHT22;4335;48.860;9.198;2023-02-28T15:19:19;5.00;99.90
8595;DHT22;4335;48.860;9.198;2023-02-28T15:21:49;5.00;99.90
8595;DHT22;4335;48.860;9.198;2023-02-28T15:24:19;5.00;99.90
8595;DHT22;4335;48.860;9.198;2023-02-28T15:26:53;5.00;99.90
8595;DHT22;4335;48.860;9.198;2023-02-28T15:29:22;5.00;99.90
8595;DHT22;4335;48.860;9.198;2023-02-28T15:31:50;5.00;99.90
8595;DHT22;4335;48.860;9.198;2023-02-28T15:34:19;4.90;99.90
8595;DHT22;4335;48.860;9.198;2023-02-28T15:36:47;4.90;99.90
8595;DHT22;4335;48.860;9.198;2023-02-28T15:39:23;4.90;99.90
8595;DHT22;4335;48.860;9.198;2023-02-28T15:41:50;4.80;99.90
8595;DHT22;4335;48.860;9.198;2023-02-28T15:44:33;4.80;99.90
8595;DHT22;4335;48.860;9.198;2023-02-28T15:47:02;4.80;99.90
8595;DHT22;4335;48.860;9.198;2023-02-28T15:49:34;4.80;99.90
8595;DHT22;4335;48.860;9.198;2023-02-28T15:52:01;4.80;99.90
8595;DHT22;4335;48.860;9.198;2023-02-28T15:54:31;4.70;99.90
8595;DHT22;4335;48.860;9.198;2023-02-28T15:57:03;4.60;99.90
8595;DHT22;4335;48.860;9.198;2023-02-28T15:59:45;4.60;99.90
8595;DHT22;4335;48.860;9.198;2023-02-28T16:02:17;4.70;99.90
8595;DHT22;4335;48.860;9.198;2023-02-28T16:04:56;4.70;99.90
8595;DHT22;4335;48.860;9.198;2023-02-28T16:07:26;4.60;99.90
8595;DHT22;4335;48.860;9.198;2023-02-28T16:09:53;4.60;99.90
8595;DHT22;4335;48.860;9.198;2023-02-28T16:12:23;4.60;99.90
8595;DHT22;4335;48.860;9.198;2023-02-28T16:14:52;4.60;99.90
8595;DHT22;4335;48.860;9.198;2023-02-28T16:17:23;4.70;99.90
8595;DHT22;4335;48.860;9.198;2023-02-28T16:19:51;4.60;99.90
8595;DHT22;4335;48.860;9.198;2023-02-28T16:22:18;4.60;99.90
8595;DHT22;4335;48.860;9.198;2023-02-28T16:24:44;4.60;99.90
8595;DHT22;4335;48.860;9.198;2023-02-28T16:27:18;4.50;99.90
8595;DHT22;4335;48.860;9.198;2023-02-28T16:29:49;4.40;99.90
8595;DHT22;4335;48.860;9.198;2023-02-28T16:32:16;4.40;99.90
8595;DHT22;4335;48.860;9.198;2023-02-28T16:34:43;4.40;99.90
8595;DHT22;4335;48.860;9.198;2023-02-28T16:37:12;4.40;99.90
8595;DHT22;4335;48.860;9.198;2023-02-28T16:39:39;4.30;99.90
8595;DHT22;4335;48.860;9.198;2023-02-28T16:42:08;4.20;99.90
8595;DHT22;4335;48.860;9.198;2023-02-28T16:44:40;4.20;99.90
8595;DHT22;4335;48.860;9.198;2023-02-28T16:47:08;4.20;99.90
8595;DHT22;4335;48.860;9.198;2023-02-28T16:49:36;4.10;99.90
8595;DHT22;4335;48.860;9.198;2023-02-28T16:52:06;4.00;99.90
8595;DHT22;4335;48.860;9.198;2023-02-28T16:54:32;4.00;99.90
8595;DHT22;4335;48.860;9.198;2023-02-28T16:56:59;3.90;99.90
8595;DHT22;4335;48.860;9.198;2023-02-28T16:59:27;3.90;99.90
8595;DHT22;4335;48.860;9.198;2023-02-28T17:01:58;3.80;99.90
8595;DHT22;4335;48.860;9.198;2023-02-28T17:04:25;3.70;99.90